sensor_id;sensor_type;location;lat;lon;timestamp;pressure;altitude;pressure_sealevel;temperature;humidity
34983;BME280;21187;50.976;13.720;2023-04-25T00:03:14;97398.16;;;11.75;48.18
34983;BME280;21187;50.976;13.720;2023-04-25T00:08:17;97393.06;;;11.70;48.17
34983;BME280;21187;50.976;13.720;2023-04-25T00:13:19;97392.22;;;11.59;48.86
34983;BME280;21187;50.976;13.720;2023-04-25T00:18:22;97385.16;;;11.51;49.03
34983;BME280;21187;50.976;13.720;2023-04-25T00:23:24;97393.63;;;11.45;49.17
34983;BME280;21187;50.976;13.720;2023-04-25T00:28:26;97385.41;;;11.31;49.87
34983;BME280;21187;50.976;13.720;2023-04-25T00:33:28;97393.06;;;11.22;50.13
34983;BME280;21187;50.976;13.720;2023-04-25T00:38:30;97384.56;;;11.27;49.65
34983;BME280;21187;50.976;13.720;2023-04-25T00:43:32;97394.94;;;11.18;50.36
34983;BME280;21187;50.976;13.720;2023-04-25T00:48:35;97386.00;;;11.13;50.34
34983;BME280;21187;50.976;13.720;2023-04-25T00:53:37;97389.47;;;11.10;50.15
34983;BME280;21187;50.976;13.720;2023-04-25T00:58:40;97377.81;;;11.06;50.10
34983;BME280;21187;50.976;13.720;2023-04-25T01:03:45;97383.19;;;11.03;49.79
34983;BME280;21187;50.976;13.720;2023-04-25T01:08:48;97386.28;;;11.01;49.89
34983;BME280;21187;50.976;13.720;2023-04-25T01:13:51;97385.03;;;10.95;49.71
34983;BME280;21187;50.976;13.720;2023-04-25T01:18:54;97382.19;;;10.80;49.98
34983;BME280;21187;50.976;13.720;2023-04-25T01:23:56;97390.63;;;10.75;49.85
34983;BME280;21187;50.976;13.720;2023-04-25T01:28:59;97387.03;;;10.64;50.11
34983;BME280;21187;50.976;13.720;2023-04-25T01:34:01;97380.38;;;10.58;49.63
34983;BME280;21187;50.976;13.720;2023-04-25T01:39:03;97378.91;;;10.64;49.56
34983;BME280;21187;50.976;13.720;2023-04-25T01:44:05;97383.50;;;10.60;49.37
34983;BME280;21187;50.976;13.720;2023-04-25T01:49:08;97385.72;;;10.51;49.27
34983;BME280;21187;50.976;13.720;2023-04-25T01:54:11;97386.44;;;10.47;49.53
34983;BME280;21187;50.976;13.720;2023-04-25T01:59:13;97382.16;;;10.46;49.07
34983;BME280;21187;50.976;13.720;2023-04-25T02:04:39;97387.94;;;10.41;49.09
34983;BME280;21187;50.976;13.720;2023-04-25T02:09:42;97382.19;;;10.20;49.73
34983;BME280;21187;50.976;13.720;2023-04-25T02:14:46;97391.78;;;10.13;49.59
34983;BME280;21187;50.976;13.720;2023-04-25T02:19:59;97388.66;;;10.11;49.80
34983;BME280;21187;50.976;13.720;2023-04-25T02:25:01;97382.06;;;10.09;49.56
34983;BME280;21187;50.976;13.720;2023-04-25T02:30:05;97379.66;;;10.04;49.45
34983;BME280;21187;50.976;13.720;2023-04-25T02:35:08;97379.34;;;10.09;49.81
34983;BME280;21187;50.976;13.720;2023-04-25T02:40:10;97373.06;;;10.01;49.20
34983;BME280;21187;50.976;13.720;2023-04-25T02:45:13;97377.66;;;9.97;49.57
34983;BME280;21187;50.976;13.720;2023-04-25T02:50:14;97373.38;;;9.96;49.18
34983;BME280;21187;50.976;13.720;2023-04-25T02:55:16;97382.53;;;9.88;49.75
34983;BME280;21187;50.976;13.720;2023-04-25T03:00:19;97383.06;;;9.70;50.21
34983;BME280;21187;50.976;13.720;2023-04-25T03:05:22;97388.16;;;9.75;49.78
34983;BME280;21187;50.976;13.720;2023-04-25T03:10:24;97370.31;;;9.97;49.17
34983;BME280;21187;50.976;13.720;2023-04-25T03:15:26;97366.66;;;10.13;48.61
34983;BME280;21187;50.976;13.720;2023-04-25T03:20:28;97361.34;;;10.20;48.58
34983;BME280;21187;50.976;13.720;2023-04-25T03:25:30;97360.59;;;10.23;48.07
34983;BME280;21187;50.976;13.720;2023-04-25T03:30:33;97367.41;;;10.13;48.38
34983;BME280;21187;50.976;13.720;2023-04-25T03:35:35;97368.38;;;9.98;48.77
34983;BME280;21187;50.976;13.720;2023-04-25T03:40:37;97370.47;;;9.81;49.16
34983;BME280;21187;50.976;13.720;2023-04-25T03:45:50;97364.22;;;9.77;49.13
34983;BME280;21187;50.976;13.720;2023-04-25T03:50:55;97370.47;;;9.81;49.01
34983;BME280;21187;50.976;13.720;2023-04-25T03:55:58;97370.78;;;9.76;49.34
34983;BME280;21187;50.976;13.720;2023-04-25T04:01:00;97366.88;;;9.74;49.21
34983;BME280;21187;50.976;13.720;2023-04-25T04:06:06;97371.28;;;9.86;48.79
34983;BME280;21187;50.976;13.720;2023-04-25T04:11:14;97370.28;;;9.94;48.10
34983;BME280;21187;50.976;13.720;2023-04-25T04:16:16;97370.34;;;10.01;48.34
34983;BME280;21187;50.976;13.720;2023-04-25T04:21:18;97375.88;;;10.08;47.94
34983;BME280;21187;50.976;13.720;2023-04-25T04:26:21;97375.97;;;10.15;47.63
34983;BME280;21187;50.976;13.720;2023-04-25T04:31:31;97375.28;;;10.22;47.52
34983;BME280;21187;50.976;13.720;2023-04-25T04:36:34;97383.44;;;10.26;47.92
34983;BME280;21187;50.976;13.720;2023-04-25T04:41:37;97389.25;;;10.28;48.07
34983;BME280;21187;50.976;13.720;2023-04-25T04:47:05;97387.59;;;10.20;48.72
34983;BME280;21187;50.976;13.720;2023-04-25T04:52:26;97390.69;;;10.18;48.76
34983;BME280;21187;50.976;13.720;2023-04-25T04:57:54;97391.56;;;10.26;48.78
34983;BME280;21187;50.976;13.720;2023-04-25T05:03:26;97397.91;;;10.37;48.39
34983;BME280;21187;50.976;13.720;2023-04-25T05:08:58;97393.44;;;10.48;48.60
34983;BME280;21187;50.976;13.720;2023-04-25T05:14:19;97393.44;;;10.48;49.12
34983;BME280;21187;50.976;13.720;2023-04-25T05:19:39;97397.38;;;10.55;48.75
34983;BME280;21187;50.976;13.720;2023-04-25T05:25:07;97396.81;;;10.72;48.64
34983;BME280;21187;50.976;13.720;2023-04-25T05:30:35;97396.03;;;10.72;48.69
34983;BME280;21187;50.976;13.720;2023-04-25T05:35:45;97395.22;;;10.71;48.61
34983;BME280;21187;50.976;13.720;2023-04-25T05:40:48;97395.34;;;10.78;48.86
34983;BME280;21187;50.976;13.720;2023-04-25T05:46:06;97396.63;;;10.92;48.51
34983;BME280;21187;50.976;13.720;2023-04-25T05:51:23;97392.06;;;10.99;48.12
34983;BME280;21187;50.976;13.720;2023-04-25T05:56:43;97403.34;;;11.05;47.88
34983;BME280;21187;50.976;13.720;2023-04-25T06:01:45;97396.81;;;11.10;47.89
34983;BME280;21187;50.976;13.720;2023-04-25T06:06:48;97398.69;;;11.02;48.00
34983;BME280;21187;50.976;13.720;2023-04-25T06:11:50;97398.91;;;10.90;47.72
34983;BME280;21187;50.976;13.720;2023-04-25T06:16:52;97403.69;;;11.00;47.49
34983;BME280;21187;50.976;13.720;2023-04-25T06:21:54;97405.00;;;11.17;47.77
34983;BME280;21187;50.976;13.720;2023-04-25T06:26:56;97398.25;;;11.41;46.66
34983;BME280;21187;50.976;13.720;2023-04-25T06:31:58;97400.72;;;11.54;46.35
34983;BME280;21187;50.976;13.720;2023-04-25T06:37:01;97398.56;;;11.77;46.49
34983;BME280;21187;50.976;13.720;2023-04-25T06:42:03;97409.66;;;12.06;45.96
34983;BME280;21187;50.976;13.720;2023-04-25T06:47:15;97401.97;;;12.23;45.46
34983;BME280;21187;50.976;13.720;2023-04-25T06:52:17;97391.22;;;12.44;44.88
34983;BME280;21187;50.976;13.720;2023-04-25T06:57:20;97396.75;;;12.66;44.59
34983;BME280;21187;50.976;13.720;2023-04-25T07:02:23;97398.28;;;12.60;44.15
34983;BME280;21187;50.976;13.720;2023-04-25T07:07:26;97398.25;;;12.53;44.20
34983;BME280;21187;50.976;13.720;2023-04-25T07:12:31;97398.34;;;12.74;44.26
34983;BME280;21187;50.976;13.720;2023-04-25T07:17:33;97407.69;;;12.88;43.81
34983;BME280;21187;50.976;13.720;2023-04-25T07:22:36;97405.34;;;12.82;43.85
34983;BME280;21187;50.976;13.720;2023-04-25T07:27:38;97410.03;;;12.86;43.91
34983;BME280;21187;50.976;13.720;2023-04-25T07:32:47;97404.91;;;12.73;43.86
34983;BME280;21187;50.976;13.720;2023-04-25T07:38:07;97405.66;;;12.67;43.72
34983;BME280;21187;50.976;13.720;2023-04-25T07:43:10;97399.94;;;12.90;43.11
34983;BME280;21187;50.976;13.720;2023-04-25T07:48:22;97403.06;;;13.06;41.74
34983;BME280;21187;50.976;13.720;2023-04-25T07:53:26;97407.78;;;13.20;41.50
34983;BME280;21187;50.976;13.720;2023-04-25T07:58:33;97403.16;;;13.50;40.68
34983;BME280;21187;50.976;13.720;2023-04-25T08:03:38;97415.56;;;13.32;39.85
34983;BME280;21187;50.976;13.720;2023-04-25T08:08:47;97413.22;;;13.31;40.16
34983;BME280;21187;50.976;13.720;2023-04-25T08:13:53;97420.59;;;13.34;39.65
34983;BME280;21187;50.976;13.720;2023-04-25T08:18:56;97424.16;;;13.45;39.66
34983;BME280;21187;50.976;13.720;2023-04-25T08:23:58;97416.81;;;13.71;39.64
34983;BME280;21187;50.976;13.720;2023-04-25T08:29:04;97430.41;;;13.71;39.38
34983;BME280;21187;50.976;13.720;2023-04-25T08:34:09;97425.72;;;13.61;39.88
34983;BME280;21187;50.976;13.720;2023-04-25T08:39:16;97439.69;;;13.48;39.88
34983;BME280;21187;50.976;13.720;2023-04-25T08:44:36;97435.06;;;13.53;39.91
34983;BME280;21187;50.976;13.720;2023-04-25T08:49:39;97444.72;;;13.36;39.86
34983;BME280;21187;50.976;13.720;2023-04-25T08:54:48;97448.53;;;13.09;40.52
34983;BME280;21187;50.976;13.720;2023-04-25T08:59:52;97458.25;;;13.07;40.71
34983;BME280;21187;50.976;13.720;2023-04-25T09:04:56;97467.53;;;13.02;40.44
34983;BME280;21187;50.976;13.720;2023-04-25T09:09:59;97472.94;;;12.95;40.80
34983;BME280;21187;50.976;13.720;2023-04-25T09:15:10;97482.25;;;12.94;41.02
34983;BME280;21187;50.976;13.720;2023-04-25T09:20:31;97482.97;;;12.76;41.61
34983;BME280;21187;50.976;13.720;2023-04-25T09:25:38;97480.69;;;12.86;41.59
34983;BME280;21187;50.976;13.720;2023-04-25T09:30:45;97496.97;;;12.82;41.93
34983;BME280;21187;50.976;13.720;2023-04-25T09:36:09;97504.69;;;12.76;41.98
34983;BME280;21187;50.976;13.720;2023-04-25T09:41:30;97511.69;;;12.81;42.06
34983;BME280;21187;50.976;13.720;2023-04-25T09:46:35;97512.44;;;12.74;42.01
34983;BME280;21187;50.976;13.720;2023-04-25T09:51:59;97517.41;;;12.58;42.39
34983;BME280;21187;50.976;13.720;2023-04-25T09:57:17;97509.19;;;12.51;42.17
34983;BME280;21187;50.976;13.720;2023-04-25T10:02:27;97511.59;;;12.59;41.88
34983;BME280;21187;50.976;13.720;2023-04-25T10:07:36;97509.22;;;12.54;41.54
34983;BME280;21187;50.976;13.720;2023-04-25T10:12:45;97523.31;;;12.74;41.84
34983;BME280;21187;50.976;13.720;2023-04-25T10:17:49;97525.78;;;13.05;41.64
34983;BME280;21187;50.976;13.720;2023-04-25T10:22:54;97528.91;;;13.10;41.51
34983;BME280;21187;50.976;13.720;2023-04-25T10:27:59;97528.88;;;13.03;41.64
34983;BME280;21187;50.976;13.720;2023-04-25T10:33:16;97536.69;;;13.08;41.73
34983;BME280;21187;50.976;13.720;2023-04-25T10:38:19;97536.75;;;13.23;41.81
34983;BME280;21187;50.976;13.720;2023-04-25T10:48:45;97546.03;;;13.14;42.45
34983;BME280;21187;50.976;13.720;2023-04-25T10:59:15;97543.53;;;12.80;43.36
34983;BME280;21187;50.976;13.720;2023-04-25T11:04:24;97544.91;;;12.56;43.70
34983;BME280;21187;50.976;13.720;2023-04-25T11:09:27;97551.50;;;12.52;43.80
34983;BME280;21187;50.976;13.720;2023-04-25T11:14:29;97556.06;;;12.40;44.04
34983;BME280;21187;50.976;13.720;2023-04-25T11:19:31;97566.47;;;12.31;44.21
34983;BME280;21187;50.976;13.720;2023-04-25T11:24:35;97563.63;;;12.17;44.63
34983;BME280;21187;50.976;13.720;2023-04-25T11:29:37;97581.09;;;12.15;44.65
34983;BME280;21187;50.976;13.720;2023-04-25T11:34:43;97588.72;;;12.03;44.98
34983;BME280;21187;50.976;13.720;2023-04-25T11:39:45;97601.16;;;12.07;44.70
34983;BME280;21187;50.976;13.720;2023-04-25T11:44:51;97601.16;;;12.07;44.64
34983;BME280;21187;50.976;13.720;2023-04-25T11:49:53;97601.16;;;12.07;44.38
34983;BME280;21187;50.976;13.720;2023-04-25T11:54:56;97601.59;;;12.09;44.59
34983;BME280;21187;50.976;13.720;2023-04-25T12:00:25;97610.53;;;12.13;44.60
34983;BME280;21187;50.976;13.720;2023-04-25T12:05:29;97612.78;;;12.04;45.16
34983;BME280;21187;50.976;13.720;2023-04-25T12:10:37;97611.34;;;12.18;44.98
34983;BME280;21187;50.976;13.720;2023-04-25T12:15:40;97616.44;;;12.23;44.33
34983;BME280;21187;50.976;13.720;2023-04-25T12:20:42;97631.00;;;12.04;44.60
34983;BME280;21187;50.976;13.720;2023-04-25T12:25:44;97620.97;;;11.74;44.21
34983;BME280;21187;50.976;13.720;2023-04-25T12:31:07;97631.19;;;11.88;44.16
34983;BME280;21187;50.976;13.720;2023-04-25T12:36:09;97616.78;;;12.18;43.85
34983;BME280;21187;50.976;13.720;2023-04-25T12:41:13;97622.47;;;12.46;43.43
34983;BME280;21187;50.976;13.720;2023-04-25T12:46:15;97624.53;;;12.64;43.05
34983;BME280;21187;50.976;13.720;2023-04-25T12:51:17;97621.91;;;12.78;42.64
34983;BME280;21187;50.976;13.720;2023-04-25T12:56:18;97615.66;;;12.71;42.30
34983;BME280;21187;50.976;13.720;2023-04-25T13:01:25;97621.69;;;12.49;42.12
34983;BME280;21187;50.976;13.720;2023-04-25T13:06:28;97623.31;;;12.54;42.00
34983;BME280;21187;50.976;13.720;2023-04-25T13:11:31;97631.75;;;12.45;41.95
34983;BME280;21187;50.976;13.720;2023-04-25T13:16:33;97639.44;;;12.36;41.96
34983;BME280;21187;50.976;13.720;2023-04-25T13:21:35;97634.22;;;12.17;42.42
34983;BME280;21187;50.976;13.720;2023-04-25T13:26:37;97647.06;;;12.23;42.24
34983;BME280;21187;50.976;13.720;2023-04-25T13:31:39;97647.44;;;12.22;42.22
34983;BME280;21187;50.976;13.720;2023-04-25T13:36:41;97652.41;;;12.12;42.36
34983;BME280;21187;50.976;13.720;2023-04-25T13:41:43;97668.53;;;11.98;42.36
34983;BME280;21187;50.976;13.720;2023-04-25T13:46:44;97674.94;;;11.82;42.00
34983;BME280;21187;50.976;13.720;2023-04-25T13:51:48;97684.00;;;11.63;42.00
34983;BME280;21187;50.976;13.720;2023-04-25T13:56:50;97689.94;;;11.42;42.69
34983;BME280;21187;50.976;13.720;2023-04-25T14:01:52;97692.63;;;11.42;42.55
34983;BME280;21187;50.976;13.720;2023-04-25T14:06:54;97692.50;;;11.31;42.66
34983;BME280;21187;50.976;13.720;2023-04-25T14:11:56;97697.47;;;11.26;42.88
34983;BME280;21187;50.976;13.720;2023-04-25T14:16:58;97695.53;;;11.26;42.68
34983;BME280;21187;50.976;13.720;2023-04-25T14:22:00;97698.69;;;11.32;42.28
34983;BME280;21187;50.976;13.720;2023-04-25T14:27:02;97708.00;;;11.31;42.52
34983;BME280;21187;50.976;13.720;2023-04-25T14:32:04;97714.25;;;11.35;42.26
34983;BME280;21187;50.976;13.720;2023-04-25T14:37:07;97698.75;;;11.36;42.39
34983;BME280;21187;50.976;13.720;2023-04-25T14:42:08;97701.38;;;11.59;42.55
34983;BME280;21187;50.976;13.720;2023-04-25T14:47:10;97708.91;;;12.03;42.15
34983;BME280;21187;50.976;13.720;2023-04-25T14:52:12;97706.78;;;12.20;41.56
34983;BME280;21187;50.976;13.720;2023-04-25T14:57:14;97703.63;;;12.18;41.62
34983;BME280;21187;50.976;13.720;2023-04-25T15:02:16;97703.72;;;12.25;41.59
34983;BME280;21187;50.976;13.720;2023-04-25T15:07:19;97709.81;;;12.14;41.62
34983;BME280;21187;50.976;13.720;2023-04-25T15:12:21;97714.66;;;12.32;41.75
34983;BME280;21187;50.976;13.720;2023-04-25T15:17:23;97711.66;;;12.44;41.43
34983;BME280;21187;50.976;13.720;2023-04-25T15:22:24;97724.75;;;12.35;41.26
34983;BME280;21187;50.976;13.720;2023-04-25T15:27:26;97735.44;;;12.17;41.15
34983;BME280;21187;50.976;13.720;2023-04-25T15:32:28;97742.19;;;11.96;40.82
34983;BME280;21187;50.976;13.720;2023-04-25T15:37:30;97736.59;;;11.86;40.36
34983;BME280;21187;50.976;13.720;2023-04-25T15:42:32;97743.41;;;11.72;40.34
34983;BME280;21187;50.976;13.720;2023-04-25T15:47:35;97742.56;;;11.68;39.99
34983;BME280;21187;50.976;13.720;2023-04-25T15:52:38;97739.31;;;11.55;39.68
34983;BME280;21187;50.976;13.720;2023-04-25T15:57:39;97745.41;;;11.48;39.56
34983;BME280;21187;50.976;13.720;2023-04-25T16:02:45;97751.53;;;11.45;39.76
34983;BME280;21187;50.976;13.720;2023-04-25T16:07:47;97746.88;;;11.42;39.64
34983;BME280;21187;50.976;13.720;2023-04-25T16:12:49;97746.47;;;11.40;39.79
34983;BME280;21187;50.976;13.720;2023-04-25T16:17:51;97746.97;;;11.49;39.55
34983;BME280;21187;50.976;13.720;2023-04-25T16:22:53;97753.25;;;11.57;39.46
34983;BME280;21187;50.976;13.720;2023-04-25T16:27:56;97752.91;;;11.59;39.67
34983;BME280;21187;50.976;13.720;2023-04-25T16:32:57;97753.03;;;11.39;39.63
34983;BME280;21187;50.976;13.720;2023-04-25T16:37:59;97761.47;;;11.34;39.55
34983;BME280;21187;50.976;13.720;2023-04-25T16:43:01;97763.19;;;11.46;39.80
34983;BME280;21187;50.976;13.720;2023-04-25T16:48:03;97763.34;;;11.57;39.47
34983;BME280;21187;50.976;13.720;2023-04-25T16:53:05;97764.78;;;11.51;39.37
34983;BME280;21187;50.976;13.720;2023-04-25T16:58:07;97773.25;;;11.45;39.05
34983;BME280;21187;50.976;13.720;2023-04-25T17:03:11;97779.53;;;11.49;38.53
34983;BME280;21187;50.976;13.720;2023-04-25T17:08:13;97787.28;;;11.51;38.14
34983;BME280;21187;50.976;13.720;2023-04-25T17:13:15;97786.47;;;11.47;37.02
34983;BME280;21187;50.976;13.720;2023-04-25T17:18:17;97798.63;;;11.33;37.17
34983;BME280;21187;50.976;13.720;2023-04-25T17:23:19;97800.56;;;11.33;37.42
34983;BME280;21187;50.976;13.720;2023-04-25T17:28:21;97804.09;;;11.37;37.40
34983;BME280;21187;50.976;13.720;2023-04-25T17:33:23;97806.06;;;11.37;37.03
34983;BME280;21187;50.976;13.720;2023-04-25T17:38:27;97819.84;;;11.28;37.57
34983;BME280;21187;50.976;13.720;2023-04-25T17:43:30;97817.75;;;11.18;37.63
34983;BME280;21187;50.976;13.720;2023-04-25T17:48:31;97828.09;;;11.12;37.52
34983;BME280;21187;50.976;13.720;2023-04-25T17:53:34;97828.94;;;11.16;37.76
34983;BME280;21187;50.976;13.720;2023-04-25T17:58:36;97841.66;;;11.12;37.66
34983;BME280;21187;50.976;13.720;2023-04-25T18:03:38;97843.16;;;11.09;37.86
34983;BME280;21187;50.976;13.720;2023-04-25T18:08:41;97842.31;;;11.05;37.95
34983;BME280;21187;50.976;13.720;2023-04-25T18:13:42;97855.31;;;10.96;38.04
34983;BME280;21187;50.976;13.720;2023-04-25T18:18:46;97845.91;;;10.90;38.07
34983;BME280;21187;50.976;13.720;2023-04-25T18:23:54;97851.06;;;10.75;37.75
34983;BME280;21187;50.976;13.720;2023-04-25T18:28:56;97860.50;;;10.62;38.03
34983;BME280;21187;50.976;13.720;2023-04-25T18:33:58;97865.34;;;10.53;38.28
34983;BME280;21187;50.976;13.720;2023-04-25T18:39:00;97868.88;;;10.37;38.44
34983;BME280;21187;50.976;13.720;2023-04-25T18:44:22;97882.25;;;10.30;38.12
34983;BME280;21187;50.976;13.720;2023-04-25T18:49:24;97885.69;;;10.27;38.96
34983;BME280;21187;50.976;13.720;2023-04-25T18:54:25;97886.06;;;10.09;38.66
34983;BME280;21187;50.976;13.720;2023-04-25T18:59:27;97892.03;;;9.99;38.94
34983;BME280;21187;50.976;13.720;2023-04-25T19:04:29;97905.56;;;9.99;39.10
34983;BME280;21187;50.976;13.720;2023-04-25T19:09:32;97909.13;;;10.03;39.50
34983;BME280;21187;50.976;13.720;2023-04-25T19:14:34;97905.84;;;9.94;39.15
34983;BME280;21187;50.976;13.720;2023-04-25T19:19:36;97918.19;;;9.95;39.66
34983;BME280;21187;50.976;13.720;2023-04-25T19:24:39;97913.34;;;9.85;39.38
34983;BME280;21187;50.976;13.720;2023-04-25T19:29:41;97910.38;;;9.90;39.53
34983;BME280;21187;50.976;13.720;2023-04-25T19:34:48;97911.06;;;9.87;39.85
34983;BME280;21187;50.976;13.720;2023-04-25T19:39:50;97913.88;;;9.74;39.86
34983;BME280;21187;50.976;13.720;2023-04-25T19:44:52;97925.75;;;9.54;39.82
34983;BME280;21187;50.976;13.720;2023-04-25T19:49:54;97931.66;;;9.43;40.51
34983;BME280;21187;50.976;13.720;2023-04-25T19:54:56;97925.94;;;9.45;39.70
34983;BME280;21187;50.976;13.720;2023-04-25T20:00:09;97931.66;;;9.43;40.54
34983;BME280;21187;50.976;13.720;2023-04-25T20:05:16;97932.34;;;9.40;39.92
34983;BME280;21187;50.976;13.720;2023-04-25T20:10:19;97932.53;;;9.47;39.82
34983;BME280;21187;50.976;13.720;2023-04-25T20:15:21;97934.81;;;9.45;40.18
34983;BME280;21187;50.976;13.720;2023-04-25T20:20:22;97944.28;;;9.39;39.99
34983;BME280;21187;50.976;13.720;2023-04-25T20:25:24;97944.75;;;9.41;40.09
34983;BME280;21187;50.976;13.720;2023-04-25T20:30:26;97953.59;;;9.26;40.44
34983;BME280;21187;50.976;13.720;2023-04-25T20:35:29;97959.50;;;9.15;41.14
34983;BME280;21187;50.976;13.720;2023-04-25T20:40:31;97959.84;;;9.14;40.55
34983;BME280;21187;50.976;13.720;2023-04-25T20:45:33;97967.25;;;9.17;40.25
34983;BME280;21187;50.976;13.720;2023-04-25T20:50:36;97966.31;;;9.09;40.62
34983;BME280;21187;50.976;13.720;2023-04-25T20:55:39;97957.19;;;8.86;41.38
34983;BME280;21187;50.976;13.720;2023-04-25T21:00:42;97957.66;;;8.75;41.38
34983;BME280;21187;50.976;13.720;2023-04-25T21:05:44;97961.28;;;8.67;41.87
34983;BME280;21187;50.976;13.720;2023-04-25T21:10:47;97963.41;;;8.61;42.35
34983;BME280;21187;50.976;13.720;2023-04-25T21:15:51;97967.81;;;8.54;42.53
34983;BME280;21187;50.976;13.720;2023-04-25T21:20:53;97974.59;;;8.47;42.45
34983;BME280;21187;50.976;13.720;2023-04-25T21:25:55;97966.50;;;8.47;42.44
34983;BME280;21187;50.976;13.720;2023-04-25T21:30:57;97973.03;;;8.46;42.92
34983;BME280;21187;50.976;13.720;2023-04-25T21:35:59;97976.25;;;8.52;42.88
34983;BME280;21187;50.976;13.720;2023-04-25T21:41:01;97977.25;;;8.60;42.54
34983;BME280;21187;50.976;13.720;2023-04-25T21:46:03;97980.19;;;8.67;42.47
34983;BME280;21187;50.976;13.720;2023-04-25T21:51:08;97970.50;;;8.66;42.54
34983;BME280;21187;50.976;13.720;2023-04-25T21:56:10;97981.38;;;8.70;42.88
34983;BME280;21187;50.976;13.720;2023-04-25T22:01:12;97991.22;;;8.62;42.91
34983;BME280;21187;50.976;13.720;2023-04-25T22:06:16;97992.75;;;8.63;42.79
34983;BME280;21187;50.976;13.720;2023-04-25T22:11:18;97996.63;;;8.62;43.02
34983;BME280;21187;50.976;13.720;2023-04-25T22:16:20;98000.19;;;8.66;43.01
34983;BME280;21187;50.976;13.720;2023-04-25T22:21:21;98006.03;;;8.68;43.00
34983;BME280;21187;50.976;13.720;2023-04-25T22:26:24;98007.03;;;8.76;43.03
34983;BME280;21187;50.976;13.720;2023-04-25T22:31:26;98013.22;;;8.76;43.42
34983;BME280;21187;50.976;13.720;2023-04-25T22:36:29;98035.50;;;8.73;44.03
34983;BME280;21187;50.976;13.720;2023-04-25T22:41:31;98032.81;;;8.61;45.26
34983;BME280;21187;50.976;13.720;2023-04-25T22:46:33;98035.06;;;8.59;45.38
34983;BME280;21187;50.976;13.720;2023-04-25T22:51:34;98036.53;;;8.56;45.12
34983;BME280;21187;50.976;13.720;2023-04-25T22:56:37;98029.00;;;8.62;45.11
34983;BME280;21187;50.976;13.720;2023-04-25T23:01:39;98038.91;;;8.58;45.77
34983;BME280;21187;50.976;13.720;2023-04-25T23:06:41;98033.53;;;8.58;45.60
34983;BME280;21187;50.976;13.720;2023-04-25T23:11:43;98035.75;;;8.43;46.54
34983;BME280;21187;50.976;13.720;2023-04-25T23:16:45;98044.28;;;8.33;46.22
34983;BME280;21187;50.976;13.720;2023-04-25T23:21:47;98045.19;;;8.37;46.26
34983;BME280;21187;50.976;13.720;2023-04-25T23:26:49;98042.03;;;8.35;46.43
34983;BME280;21187;50.976;13.720;2023-04-25T23:31:51;98051.94;;;8.31;46.73
34983;BME280;21187;50.976;13.720;2023-04-25T23:36:53;98054.97;;;8.29;46.61
34983;BME280;21187;50.976;13.720;2023-04-25T23:41:54;98057.44;;;8.35;46.91
34983;BME280;21187;50.976;13.720;2023-04-25T23:46:57;98061.81;;;8.27;46.79
34983;BME280;21187;50.976;13.720;2023-04-25T23:51:59;98058.00;;;8.28;47.21
34983;BME280;21187;50.976;13.720;2023-04-25T23:57:01;98064.09;;;8.25;47.17
